Time;durP1;ratioP1;P1;durP2;ratioP2;P2;SDS_P1;SDS_P2;PMS_P1;PMS_P2;Temp;Humidity;BMP_temperature;BMP_pressure;BME280_temperature;BME280_humidity;BME280_pressure;Samples;Min_cycle;Max_cycle;Signal;HPM_P1;HPM_P2
2021/11/10 00:01:39;;;;;;;6.60;2.60;;;;;;;9.02;69.74;102150.13;5053363;28;20063;-21
2021/11/10 00:04:05;;;;;;;5.70;3.00;;;;;;;9.00;69.35;102152.94;5071046;28;20028;-21
2021/11/10 00:06:30;;;;;;;7.90;2.53;;;;;;;8.98;69.96;102146.94;5070712;28;20040;-22
2021/11/10 00:08:55;;;;;;;4.90;2.60;;;;;;;8.69;70.51;102131.28;5070952;28;20028;-21
2021/11/10 00:11:21;;;;;;;5.68;2.72;;;;;;;8.43;71.21;102145.38;5070749;28;20040;-21
2021/11/10 00:13:46;;;;;;;4.63;2.38;;;;;;;8.36;72.29;102164.75;5070316;28;20052;-22
2021/11/10 00:16:12;;;;;;;4.53;2.60;;;;;;;7.95;70.83;102159.88;5070328;28;20051;-21
2021/11/10 00:18:38;;;;;;;7.80;3.28;;;;;;;8.15;69.29;102135.78;5070677;28;20131;-21
2021/11/10 00:21:03;;;;;;;6.32;2.83;;;;;;;8.41;68.48;102159.81;5070577;28;20036;-21
2021/11/10 00:23:29;;;;;;;5.93;2.83;;;;;;;8.54;69.67;102156.75;5070577;28;20032;-21
2021/11/10 00:25:54;;;;;;;5.10;2.63;;;;;;;8.61;69.09;102168.47;5070352;28;20032;-21
2021/11/10 00:28:20;;;;;;;5.00;2.97;;;;;;;8.45;69.76;102175.31;5070476;28;20033;-22
2021/11/10 00:30:45;;;;;;;6.85;3.50;;;;;;;8.52;70.23;102159.59;5070505;28;20101;-22
2021/11/10 00:33:11;;;;;;;7.80;3.30;;;;;;;8.66;68.52;102126.28;5070598;28;20484;-22
2021/11/10 00:35:36;;;;;;;9.15;3.38;;;;;;;8.75;68.65;102157.28;5070296;28;20024;-21
2021/11/10 00:38:02;;;;;;;9.02;3.80;;;;;;;8.11;70.46;102150.38;5070760;28;20036;-21
2021/11/10 00:40:27;;;;;;;6.13;3.17;;;;;;;7.70;72.11;102153.44;5070207;28;20032;-21
2021/11/10 00:42:53;;;;;;;6.53;3.65;;;;;;;7.39;72.48;102151.06;5070128;28;20044;-21
2021/11/10 00:45:18;;;;;;;7.78;3.60;;;;;;;7.39;73.04;102159.03;5052154;28;20020;-21
2021/11/10 00:47:44;;;;;;;7.63;3.88;;;;;;;7.73;71.50;102161.13;5052407;28;20036;-21
2021/11/10 00:50:09;;;;;;;9.75;4.45;;;;;;;7.68;72.13;102144.78;5069716;28;20040;-21
2021/11/10 00:52:35;;;;;;;7.65;4.15;;;;;;;7.82;70.81;102167.34;5070268;28;20025;-21
2021/11/10 00:55:00;;;;;;;20.05;9.23;;;;;;;7.71;71.32;102160.44;5069996;28;20055;-21
2021/11/10 00:57:26;;;;;;;28.65;11.65;;;;;;;7.54;72.61;102180.66;5051939;28;20079;-21
2021/11/10 00:59:51;;;;;;;31.45;11.95;;;;;;;7.40;72.96;102171.34;5069966;28;20053;-21
2021/11/10 01:02:17;;;;;;;23.92;10.13;;;;;;;7.44;73.22;102163.94;5069938;28;20032;-21
2021/11/10 01:04:42;;;;;;;16.50;6.90;;;;;;;7.44;72.76;102163.94;5069694;28;20051;-21
2021/11/10 01:07:08;;;;;;;9.15;4.57;;;;;;;7.36;73.25;102150.56;5070186;28;20071;-21
2021/11/10 01:09:40;;;;;;;10.68;5.00;;;;;;;7.68;72.48;102170.50;5069926;28;20102;-21
2021/11/10 01:12:09;;;;;;;9.77;4.65;;;;;;;7.52;72.39;102166.69;5069449;28;20062;-21
2021/11/10 01:14:35;;;;;;;8.05;4.30;;;;;;;7.56;72.82;102178.69;5034772;28;20060;-21
2021/11/10 01:17:00;;;;;;;8.45;4.38;;;;;;;7.62;72.03;102156.84;5069348;28;20095;-21
2021/11/10 01:19:26;;;;;;;8.10;4.22;;;;;;;7.51;72.88;102159.69;5069339;28;20038;-21
2021/11/10 01:21:51;;;;;;;8.45;4.45;;;;;;;7.43;73.50;102175.50;5069675;28;20032;-21
2021/11/10 01:24:17;;;;;;;9.48;4.65;;;;;;;7.18;74.70;102163.75;5051228;28;20040;-22
2021/11/10 01:26:42;;;;;;;7.55;3.70;;;;;;;7.35;74.56;102173.59;5069674;28;20093;-21
2021/11/10 01:29:08;;;;;;;8.02;3.60;;;;;;;7.75;73.69;102160.97;5069640;28;20199;-21
2021/11/10 01:31:33;;;;;;;7.55;4.07;;;;;;;7.67;73.14;102153.75;5069262;28;20032;-22
2021/11/10 01:34:03;;;;;;;7.95;3.55;;;;;;;7.47;74.37;102153.00;5069168;28;20133;-21
2021/11/10 01:36:29;;;;;;;7.25;3.50;;;;;;;7.57;73.84;102151.13;5069010;28;20370;-21
2021/11/10 01:38:54;;;;;;;6.07;3.50;;;;;;;7.83;73.46;102179.66;5069316;28;20039;-21
2021/11/10 01:41:20;;;;;;;5.82;3.33;;;;;;;7.52;74.63;102166.69;5068895;28;20507;-21
2021/11/10 01:43:46;;;;;;;5.22;3.00;;;;;;;7.43;75.17;102159.59;5069303;28;20474;-21
2021/11/10 01:46:12;;;;;;;7.68;3.00;;;;;;;7.28;75.81;102153.94;5068330;28;20047;-22
2021/11/10 01:48:38;;;;;;;7.32;3.20;;;;;;;7.21;75.84;102153.69;5069051;28;20483;-22
2021/11/10 01:51:03;;;;;;;5.53;3.00;;;;;;;7.51;75.37;102164.16;5051001;28;20423;-21
2021/11/10 01:53:29;;;;;;;6.32;3.03;;;;;;;7.43;74.66;102151.63;5068730;28;20040;-21
2021/11/10 01:55:54;;;;;;;6.68;3.22;;;;;;;7.10;75.02;102151.19;5068799;28;20028;-21
2021/11/10 01:58:20;;;;;;;6.13;3.55;;;;;;;7.02;75.60;102154.56;5068736;28;20036;-21
2021/11/10 02:00:45;;;;;;;7.80;3.85;;;;;;;7.30;74.92;102157.28;5068912;28;20036;-21
2021/11/10 02:03:11;;;;;;;7.68;3.30;;;;;;;7.24;75.82;102153.38;5068454;28;20036;-21
2021/11/10 02:05:36;;;;;;;10.32;5.30;;;;;;;7.22;74.98;102149.19;5068690;28;20033;-21
2021/11/10 02:08:02;;;;;;;12.18;5.72;;;;;;;6.91;75.76;102133.53;5068485;28;20040;-21
2021/11/10 02:10:27;;;;;;;12.98;6.22;;;;;;;6.71;76.88;102148.63;5068658;28;20036;-22
2021/11/10 02:12:54;;;;;;;14.60;7.68;;;;;;;6.61;77.30;102150.47;5068109;28;20057;-21
2021/11/10 02:15:20;;;;;;;20.25;8.40;;;;;;;6.67;76.86;102149.91;5068574;28;20028;-22
2021/11/10 02:17:51;;;;;;;17.58;7.07;;;;;;;6.62;76.84;102153.00;5068605;28;20085;-21
2021/11/10 02:20:16;;;;;;;12.55;6.20;;;;;;;6.38;76.88;102145.47;5068362;28;20032;-22
2021/11/10 02:22:42;;;;;;;10.10;5.50;;;;;;;6.69;75.31;102157.72;5051039;28;20042;-21
2021/11/10 02:25:09;;;;;;;9.60;4.82;;;;;;;6.71;75.54;102153.94;5050786;28;20737;-21
2021/11/10 02:27:35;;;;;;;9.23;4.80;;;;;;;6.72;74.92;102152.97;5067747;28;20039;-22
2021/11/10 02:30:06;;;;;;;11.40;4.60;;;;;;;6.89;74.60;102159.34;5068008;28;20790;-21
2021/11/10 02:32:31;;;;;;;10.75;5.35;;;;;;;6.80;74.72;102162.84;5068190;28;20093;-23
2021/11/10 02:34:56;;;;;;;11.65;5.20;;;;;;;6.73;75.16;102159.13;5068589;28;20024;-21
2021/11/10 02:37:22;;;;;;;9.80;5.35;;;;;;;6.77;74.24;102161.31;5068190;28;20044;-21
2021/11/10 02:39:48;;;;;;;9.30;4.57;;;;;;;6.74;73.23;102169.59;5068423;28;20473;-21
2021/11/10 02:42:15;;;;;;;10.05;4.53;;;;;;;6.68;74.44;102156.91;5067869;28;20041;-21
2021/11/10 02:44:40;;;;;;;8.48;4.85;;;;;;;6.73;74.01;102161.75;5068293;28;20108;-21
2021/11/10 02:47:06;;;;;;;8.73;4.90;;;;;;;6.93;73.48;102163.41;5068079;28;20044;-21
2021/11/10 02:49:31;;;;;;;11.40;5.68;;;;;;;6.91;73.13;102157.41;5068114;28;20071;-21
2021/11/10 02:52:06;;;;;;;10.32;5.88;;;;;;;6.96;73.43;102170.22;5068508;28;20029;-21
2021/11/10 02:54:33;;;;;;;12.93;5.53;;;;;;;7.04;72.14;102151.78;5068399;28;20020;-22
2021/11/10 02:57:00;;;;;;;9.93;6.55;;;;;;;6.82;71.97;102161.75;5068295;28;20040;-21
2021/11/10 02:59:26;;;;;;;10.45;6.15;;;;;;;6.51;73.45;102165.53;5068077;28;20033;-21
2021/11/10 03:01:51;;;;;;;8.80;5.07;;;;;;;6.62;72.88;102178.66;5068047;28;20071;-21
2021/11/10 03:04:24;;;;;;;12.10;6.03;;;;;;;6.26;73.37;102183.69;5049735;28;20091;-21
2021/11/10 03:06:50;;;;;;;9.13;5.13;;;;;;;6.31;72.92;102176.13;5068391;28;20028;-22
2021/11/10 03:09:23;;;;;;;9.52;5.22;;;;;;;6.52;73.10;102162.75;5067934;28;20040;-23
2021/11/10 03:11:51;;;;;;;9.73;5.13;;;;;;;6.65;72.90;102167.75;5067915;28;20052;-21
2021/11/10 03:14:16;;;;;;;9.02;4.50;;;;;;;6.24;73.18;102159.97;5049682;28;20056;-22
2021/11/10 03:16:42;;;;;;;8.75;4.90;;;;;;;6.06;74.13;102150.19;5067821;28;20031;-21
2021/11/10 03:19:08;;;;;;;10.02;5.03;;;;;;;5.77;73.31;102178.25;5068090;28;20064;-22
2021/11/10 03:21:33;;;;;;;9.55;4.38;;;;;;;5.67;75.11;102177.41;5049901;28;20036;-21
2021/11/10 03:23:59;;;;;;;10.80;5.53;;;;;;;5.61;75.55;102184.06;5067879;28;20531;-22
2021/11/10 03:26:24;;;;;;;9.60;4.28;;;;;;;5.32;75.06;102168.06;5067622;28;20073;-22
2021/11/10 03:28:50;;;;;;;9.32;4.82;;;;;;;5.02;77.59;102182.13;5049981;28;20036;-21
2021/11/10 03:31:16;;;;;;;8.52;4.68;;;;;;;4.92;78.93;102162.72;5049899;28;20103;-22
2021/11/10 03:33:41;;;;;;;19.65;4.90;;;;;;;5.33;77.60;102163.63;5049789;28;20107;-22
2021/11/10 03:36:07;;;;;;;8.52;4.50;;;;;;;4.84;78.74;102176.56;5067350;28;20036;-22
2021/11/10 03:38:32;;;;;;;9.32;4.47;;;;;;;4.68;79.24;102168.25;5067805;28;20025;-21
2021/11/10 03:40:58;;;;;;;8.15;4.38;;;;;;;4.71;79.36;102179.41;5070550;28;20036;-21
2021/11/10 03:43:23;;;;;;;9.60;4.57;;;;;;;5.00;79.80;102184.88;5071362;28;20094;-22
2021/11/10 03:45:49;;;;;;;13.13;5.20;;;;;;;4.91;78.45;102175.09;5053495;28;20028;-21
2021/11/10 03:48:15;;;;;;;9.48;5.10;;;;;;;4.90;78.95;102180.50;5052944;28;20101;-21
2021/11/10 03:50:40;;;;;;;8.40;4.50;;;;;;;4.80;79.57;102178.66;5053252;28;20079;-21
2021/11/10 03:53:06;;;;;;;11.10;5.60;;;;;;;5.22;78.58;102183.91;5071274;28;20078;-21
2021/11/10 03:55:35;;;;;;;9.00;5.18;;;;;;;5.50;77.34;102170.94;5070992;28;20024;-21
2021/11/10 03:58:02;;;;;;;10.32;5.45;;;;;;;5.19;77.42;102184.19;5053763;28;20032;-21
2021/11/10 04:00:27;;;;;;;9.35;5.07;;;;;;;5.35;77.81;102183.69;5070878;28;20391;-22
2021/11/10 04:02:53;;;;;;;10.13;5.25;;;;;;;5.13;77.35;102158.25;5070829;28;20036;-21
2021/11/10 04:05:18;;;;;;;8.75;4.70;;;;;;;5.26;76.87;102183.66;5071401;28;20028;-21
2021/11/10 04:07:45;;;;;;;11.25;5.72;;;;;;;5.42;76.64;102168.97;5070836;28;20125;-22
2021/11/10 04:10:11;;;;;;;10.68;4.80;;;;;;;5.56;76.02;102170.41;5052721;28;20056;-22
2021/11/10 04:12:37;;;;;;;12.02;5.75;;;;;;;5.67;76.54;102176.56;5070636;28;20465;-22
2021/11/10 04:15:03;;;;;;;10.68;5.68;;;;;;;5.76;76.20;102181.91;5071131;28;20024;-21
2021/11/10 04:17:28;;;;;;;12.02;6.05;;;;;;;5.82;75.62;102175.19;5070748;28;20480;-21
2021/11/10 04:19:54;;;;;;;10.98;6.13;;;;;;;5.49;75.86;102171.06;5070675;28;20039;-21
2021/11/10 04:22:20;;;;;;;11.05;5.55;;;;;;;5.71;75.32;102180.63;5052366;28;20106;-21
2021/11/10 04:24:46;;;;;;;13.60;5.10;;;;;;;5.77;75.86;102188.03;5070578;28;20056;-21
2021/11/10 04:27:12;;;;;;;10.27;5.18;;;;;;;5.98;74.69;102186.13;5070399;28;20581;-21
2021/11/10 04:29:38;;;;;;;11.32;5.30;;;;;;;5.75;75.25;102180.22;5070595;28;20488;-21
2021/11/10 04:32:04;;;;;;;15.57;5.53;;;;;;;5.80;73.86;102187.75;5070258;28;20032;-21
2021/11/10 04:34:30;;;;;;;10.18;5.97;;;;;;;5.97;73.48;102184.47;5069855;28;20496;-22
2021/11/10 04:36:55;;;;;;;15.52;7.90;;;;;;;6.07;73.89;102196.88;5069597;28;20039;-22
2021/11/10 04:39:21;;;;;;;18.30;11.75;;;;;;;5.57;75.18;102192.41;5069951;28;20028;-21
2021/11/10 04:41:46;;;;;;;16.42;9.75;;;;;;;5.51;75.44;102190.28;5070263;28;20048;-21
2021/11/10 04:44:12;;;;;;;18.85;12.02;;;;;;;5.62;74.55;102201.63;5070305;28;20431;-21
2021/11/10 04:46:37;;;;;;;13.73;8.45;;;;;;;5.62;74.21;102206.09;5070064;28;20037;-21
2021/11/10 04:49:04;;;;;;;12.88;8.60;;;;;;;5.85;73.55;102206.72;5070426;28;20032;-21
2021/11/10 04:51:29;;;;;;;12.60;7.63;;;;;;;5.63;73.23;102203.28;5069090;28;20496;-21
2021/11/10 04:53:57;;;;;;;11.63;7.22;;;;;;;5.59;73.67;102196.59;5070181;28;20039;-21
2021/11/10 04:56:22;;;;;;;14.50;7.43;;;;;;;5.21;75.54;102203.41;5069898;28;20115;-22
2021/11/10 04:58:48;;;;;;;13.00;7.10;;;;;;;5.42;74.75;102200.72;5070407;28;20041;-21
2021/11/10 05:01:24;;;;;;;12.80;5.97;;;;;;;5.39;74.90;102184.25;5069902;28;20025;-22
2021/11/10 05:03:50;;;;;;;12.02;7.28;;;;;;;5.50;74.93;102208.00;5053573;28;20028;-21
2021/11/10 05:06:15;;;;;;;11.23;6.80;;;;;;;5.59;74.75;102216.94;5051609;28;20549;-22
2021/11/10 05:08:41;;;;;;;12.10;7.47;;;;;;;5.75;73.43;102216.44;5070098;28;20041;-21
2021/11/10 05:11:06;;;;;;;12.43;7.55;;;;;;;5.82;73.09;102217.56;5069546;28;20496;-22
2021/11/10 05:13:32;;;;;;;14.25;7.35;;;;;;;5.09;74.93;102204.44;5051453;28;20060;-22
2021/11/10 05:15:57;;;;;;;15.75;8.80;;;;;;;5.20;74.25;102220.22;5070001;28;20688;-22
2021/11/10 05:18:23;;;;;;;12.98;8.73;;;;;;;4.81;74.88;102213.84;5051606;28;20043;-21
2021/11/10 05:20:49;;;;;;;14.82;8.88;;;;;;;4.57;78.37;102214.09;5069525;28;20413;-21
2021/11/10 05:23:15;;;;;;;15.90;10.68;;;;;;;5.19;76.83;102210.63;5069524;28;20038;-21
2021/11/10 05:25:41;;;;;;;19.00;11.35;;;;;;;4.96;76.19;102217.00;5069480;28;20064;-21
2021/11/10 05:28:07;;;;;;;22.10;13.05;;;;;;;4.76;77.45;102213.38;5069004;28;20024;-22
2021/11/10 05:30:32;;;;;;;45.80;28.38;;;;;;;4.33;79.33;102196.66;5069540;28;20028;-21
2021/11/10 05:32:58;;;;;;;26.05;17.23;;;;;;;4.41;79.40;102222.44;5069294;28;20432;-21
2021/11/10 05:35:23;;;;;;;26.70;17.15;;;;;;;4.48;79.36;102217.50;5069073;28;20389;-22
2021/11/10 05:37:49;;;;;;;41.30;25.83;;;;;;;4.15;81.54;102241.25;5068981;28;20055;-21
2021/11/10 05:40:14;;;;;;;46.53;29.15;;;;;;;4.29;81.17;102234.84;5068951;28;20403;-21
2021/11/10 05:42:40;;;;;;;39.55;23.77;;;;;;;4.42;79.91;102235.50;5069008;28;20114;-22
2021/11/10 05:45:06;;;;;;;35.63;20.98;;;;;;;4.26;81.08;102221.88;5068989;28;20028;-21
2021/11/10 05:47:31;;;;;;;27.40;15.95;;;;;;;4.43;78.82;102224.00;5069083;28;20036;-21
2021/11/10 05:49:57;;;;;;;30.90;16.42;;;;;;;4.72;77.82;102247.19;5050221;28;20032;-21
2021/11/10 05:52:22;;;;;;;28.17;15.63;;;;;;;5.08;77.03;102254.81;5067753;28;20127;-22
2021/11/10 05:54:48;;;;;;;24.73;14.05;;;;;;;5.34;74.87;102252.63;5068016;28;20455;-21
2021/11/10 05:57:14;;;;;;;18.95;11.35;;;;;;;5.31;74.95;102260.81;5068871;28;20149;-22
2021/11/10 05:59:41;;;;;;;19.95;11.50;;;;;;;5.91;72.97;102263.63;5068793;28;20511;-21
2021/11/10 06:02:06;;;;;;;20.55;13.15;;;;;;;5.47;73.92;102255.88;5050933;28;20066;-21
2021/11/10 06:04:32;;;;;;;29.50;13.48;;;;;;;5.23;75.35;102253.50;5068685;28;20024;-21
2021/11/10 06:06:57;;;;;;;19.48;11.07;;;;;;;5.12;76.09;102240.38;5068532;28;20698;-21
2021/11/10 06:09:23;;;;;;;24.92;12.82;;;;;;;5.19;76.99;102258.25;5069137;28;20480;-21
2021/11/10 06:11:48;;;;;;;32.65;19.80;;;;;;;5.86;75.85;102269.28;5068677;28;20052;-22
2021/11/10 06:14:14;;;;;;;32.00;17.70;;;;;;;5.81;75.48;102263.56;5068359;28;20075;-21
2021/11/10 06:16:40;;;;;;;30.48;16.98;;;;;;;6.06;75.73;102272.03;5050843;28;20074;-21
2021/11/10 06:19:05;;;;;;;27.88;14.80;;;;;;;5.80;76.74;102267.16;5050508;28;20032;-21
2021/11/10 06:21:31;;;;;;;21.92;11.88;;;;;;;5.63;77.38;102271.28;5068290;28;20034;-21
2021/11/10 06:23:56;;;;;;;16.80;10.88;;;;;;;5.82;77.44;102270.53;5068764;28;20032;-21
2021/11/10 06:26:22;;;;;;;23.00;12.85;;;;;;;6.09;77.32;102282.34;5067928;28;20032;-21
2021/11/10 06:28:48;;;;;;;21.65;11.05;;;;;;;5.89;76.21;102276.16;5068503;28;20115;-22
2021/11/10 06:31:13;;;;;;;20.95;11.77;;;;;;;5.85;77.74;102291.47;5068347;28;20032;-23
2021/11/10 06:33:39;;;;;;;20.35;11.63;;;;;;;5.63;78.14;102266.81;5068558;28;20033;-21
2021/11/10 06:36:05;;;;;;;23.55;12.63;;;;;;;6.16;78.13;102286.16;5068462;28;20812;-21
2021/11/10 06:38:31;;;;;;;19.58;10.55;;;;;;;6.44;76.85;102277.44;5067773;28;20040;-22
2021/11/10 06:40:56;;;;;;;18.75;10.27;;;;;;;6.91;73.21;102263.50;5068665;28;20082;-21
2021/11/10 06:43:24;;;;;;;15.95;9.70;;;;;;;6.94;74.11;102284.41;5050525;28;20036;-21
2021/11/10 06:45:49;;;;;;;14.18;7.95;;;;;;;6.35;76.84;102290.66;5068299;28;20116;-21
2021/11/10 06:48:15;;;;;;;18.58;9.73;;;;;;;6.51;76.23;102298.09;5067878;28;20028;-21
2021/11/10 06:50:41;;;;;;;48.05;29.33;;;;;;;6.64;75.96;102299.50;5068020;28;20082;-21
2021/11/10 06:53:06;;;;;;;24.05;14.73;;;;;;;6.41;75.86;102277.69;5068122;28;20028;-21
2021/11/10 06:55:32;;;;;;;20.55;12.95;;;;;;;6.44;77.33;102295.97;5068029;28;20122;-22
2021/11/10 06:57:57;;;;;;;22.33;13.40;;;;;;;7.00;75.98;102301.59;5068155;28;20488;-21
2021/11/10 07:00:23;;;;;;;21.90;12.63;;;;;;;7.18;75.48;102299.09;5067777;28;20404;-21
2021/11/10 07:02:48;;;;;;;18.90;11.68;;;;;;;7.22;76.18;102272.09;5068080;28;20040;-21
2021/11/10 07:05:14;;;;;;;24.25;14.02;;;;;;;7.31;74.73;102304.06;5067817;28;20036;-21
2021/11/10 07:07:39;;;;;;;26.40;14.98;;;;;;;7.14;76.62;102305.66;5067664;28;20040;-21
2021/11/10 07:10:05;;;;;;;29.98;17.13;;;;;;;7.13;75.45;102286.25;5067596;28;20500;-23
2021/11/10 07:12:31;;;;;;;27.50;16.55;;;;;;;7.25;75.26;102289.56;5067551;28;20040;-22
2021/11/10 07:14:56;;;;;;;28.25;17.83;;;;;;;7.47;75.47;102306.97;5069895;28;20893;-22
2021/11/10 07:17:23;;;;;;;26.80;14.00;;;;;;;7.53;74.39;102298.44;5071710;28;20039;-21
2021/11/10 07:19:50;;;;;;;22.80;12.43;;;;;;;7.85;73.62;102310.50;5072026;28;20072;-21
2021/11/10 07:22:16;;;;;;;20.98;13.70;;;;;;;8.02;71.91;102296.44;5071731;28;20029;-21
2021/11/10 07:24:42;;;;;;;22.92;14.98;;;;;;;8.42;73.06;102318.38;5071664;28;20116;-21
2021/11/10 07:27:07;;;;;;;25.73;16.30;;;;;;;8.14;73.53;102309.53;5072021;28;20511;-21
2021/11/10 07:29:33;;;;;;;28.85;18.30;;;;;;;8.42;74.06;102313.91;5071577;28;20028;-21
2021/11/10 07:31:58;;;;;;;34.47;21.70;;;;;;;8.26;72.80;102295.06;5071690;28;20028;-21
2021/11/10 07:34:24;;;;;;;24.83;15.48;;;;;;;8.51;71.92;102312.16;5071330;28;20507;-21
2021/11/10 07:36:50;;;;;;;27.90;18.13;;;;;;;8.23;73.57;102311.31;5071581;28;20028;-21
2021/11/10 07:39:15;;;;;;;62.63;32.58;;;;;;;8.42;71.45;102318.38;5071383;28;20040;-21
2021/11/10 07:41:41;;;;;;;37.38;22.02;;;;;;;8.32;70.81;102297.13;5071347;28;20029;-21
2021/11/10 07:44:08;;;;;;;16.42;10.63;;;;;;;8.38;71.75;102323.13;5071234;28;20117;-21
2021/11/10 07:46:41;;;;;;;15.63;10.13;;;;;;;8.58;72.19;102307.91;5071380;28;20031;-21
2021/11/10 07:49:06;;;;;;;46.45;24.90;;;;;;;8.55;69.02;102312.69;5036941;28;20060;-21
2021/11/10 07:51:34;;;;;;;13.88;8.38;;;;;;;8.58;71.52;102323.03;5071755;28;20071;-22
2021/11/10 07:54:00;;;;;;;15.23;9.43;;;;;;;8.47;70.48;102294.00;5052990;28;20432;-21
2021/11/10 07:56:26;;;;;;;15.43;9.00;;;;;;;8.94;70.26;102315.06;5070981;28;20143;-21
2021/11/10 07:58:51;;;;;;;20.30;10.82;;;;;;;9.13;66.74;102317.53;5071144;28;20116;-22
2021/11/10 08:01:17;;;;;;;13.63;7.15;;;;;;;8.88;69.14;102313.00;5070925;28;20098;-21
2021/11/10 08:03:42;;;;;;;28.65;14.18;;;;;;;9.08;66.67;102317.19;5071098;28;20056;-21
2021/11/10 08:06:08;;;;;;;27.95;17.27;;;;;;;9.27;66.98;102318.00;5052625;28;20038;-22
2021/11/10 08:08:34;;;;;;;12.82;9.48;;;;;;;9.49;67.18;102311.34;5052976;28;20032;-21
2021/11/10 08:11:00;;;;;;;12.55;8.38;;;;;;;9.40;65.22;102297.13;5052757;28;20465;-21
2021/11/10 08:13:26;;;;;;;27.63;15.75;;;;;;;9.68;66.48;102320.94;5070499;28;20110;-22
2021/11/10 08:15:52;;;;;;;17.90;9.15;;;;;;;9.65;63.71;102328.25;5070973;28;20029;-22
2021/11/10 08:18:18;;;;;;;16.00;11.15;;;;;;;9.65;66.65;102324.75;5052906;28;20036;-21
2021/11/10 08:20:44;;;;;;;14.15;9.18;;;;;;;9.94;64.99;102326.25;5052865;28;20070;-21
2021/11/10 08:23:11;;;;;;;13.60;8.18;;;;;;;9.88;66.13;102321.53;5070515;28;20032;-21
2021/11/10 08:25:36;;;;;;;9.40;5.65;;;;;;;10.04;64.00;102332.28;5069729;28;20029;-22
2021/11/10 08:28:02;;;;;;;11.25;6.35;;;;;;;10.10;64.88;102339.66;5070459;28;20040;-21
2021/11/10 08:30:27;;;;;;;62.00;30.00;;;;;;;10.42;63.44;102341.63;5070451;28;20035;-21
2021/11/10 08:32:53;;;;;;;14.15;8.15;;;;;;;10.48;62.97;102334.81;5070607;28;20478;-21
2021/11/10 08:35:19;;;;;;;36.17;16.92;;;;;;;10.76;62.20;102332.69;5052239;28;20060;-21
2021/11/10 08:37:45;;;;;;;33.45;17.02;;;;;;;10.52;60.61;102335.31;5069777;28;20040;-21
2021/11/10 08:40:11;;;;;;;18.65;11.30;;;;;;;10.63;62.93;102330.50;5035415;28;20055;-21
2021/11/10 08:42:37;;;;;;;22.50;11.55;;;;;;;10.67;60.80;102331.03;5052614;28;20449;-21
2021/11/10 08:45:11;;;;;;;59.00;29.27;;;;;;;10.83;59.69;102327.56;5070172;28;20032;-21
2021/11/10 08:47:36;;;;;;;13.73;8.77;;;;;;;11.02;59.13;102329.91;5070222;28;20070;-22
2021/11/10 08:50:05;;;;;;;15.95;8.98;;;;;;;11.43;59.26;102321.88;5070101;28;20068;-21
2021/11/10 08:52:30;;;;;;;7.60;4.40;;;;;;;11.54;58.01;102327.84;5069565;28;20074;-21
2021/11/10 08:54:56;;;;;;;6.97;4.65;;;;;;;11.08;56.29;102323.06;5070202;28;20028;-21
2021/11/10 08:57:21;;;;;;;8.05;4.18;;;;;;;10.99;56.56;102313.38;5069968;28;20024;-21
2021/11/10 08:59:47;;;;;;;6.45;4.20;;;;;;;11.05;58.02;102320.72;5051828;28;20563;-21
2021/11/10 09:02:12;;;;;;;92.90;36.97;;;;;;;11.00;54.60;102318.53;5069572;28;20040;-21
2021/11/10 09:04:38;;;;;;;8.13;4.15;;;;;;;10.99;57.32;102310.69;5069671;28;20036;-22
2021/11/10 09:07:04;;;;;;;9.13;5.55;;;;;;;11.47;56.67;102303.66;5051892;28;20024;-21
2021/11/10 09:09:29;;;;;;;7.80;4.72;;;;;;;11.58;57.48;102313.97;5070026;28;20029;-21
2021/11/10 09:11:55;;;;;;;14.43;9.40;;;;;;;12.06;53.62;102311.38;5069889;28;20035;-21
2021/11/10 09:14:20;;;;;;;6.38;3.83;;;;;;;11.88;54.47;102321.44;5069332;28;20052;-22
2021/11/10 09:16:46;;;;;;;6.75;4.25;;;;;;;12.11;53.36;102324.22;5069750;28;20111;-22
2021/11/10 09:19:12;;;;;;;8.63;4.50;;;;;;;12.20;54.98;102296.44;5069725;28;20139;-21
2021/11/10 09:21:37;;;;;;;8.02;4.93;;;;;;;12.08;55.36;102300.50;5069347;28;20166;-21
2021/11/10 09:24:04;;;;;;;8.52;4.55;;;;;;;12.34;54.61;102298.38;5069486;28;20036;-21
2021/11/10 09:26:29;;;;;;;7.15;3.92;;;;;;;12.04;53.05;102290.16;5069195;28;20078;-21
2021/11/10 09:28:55;;;;;;;7.68;4.00;;;;;;;11.95;54.13;102277.84;5069315;28;20036;-22
2021/11/10 09:31:22;;;;;;;7.07;4.97;;;;;;;12.33;55.44;102290.50;5069258;28;20032;-21
2021/11/10 09:33:48;;;;;;;7.70;4.50;;;;;;;12.50;53.18;102277.84;5069139;28;20115;-21
2021/11/10 09:36:14;;;;;;;7.95;4.57;;;;;;;12.58;54.74;102280.47;5051205;28;20037;-21
2021/11/10 09:38:39;;;;;;;12.88;5.35;;;;;;;12.64;53.94;102253.00;5068748;28;20483;-21
2021/11/10 09:41:05;;;;;;;7.65;5.15;;;;;;;12.89;54.00;102266.19;5068956;28;20028;-21
2021/11/10 09:43:36;;;;;;;8.45;5.00;;;;;;;13.20;52.72;102250.84;5069023;28;20032;-21
2021/11/10 09:46:01;;;;;;;9.20;4.70;;;;;;;12.55;53.63;102264.78;5051823;28;20034;-21
2021/11/10 09:48:27;;;;;;;9.70;5.35;;;;;;;13.07;52.92;102262.16;5068481;28;20395;-21
2021/11/10 09:50:53;;;;;;;8.77;5.43;;;;;;;13.04;54.06;102261.72;5068660;28;20028;-21
2021/11/10 09:53:19;;;;;;;20.60;10.68;;;;;;;13.43;52.79;102252.66;5051264;28;20068;-21
2021/11/10 09:55:44;;;;;;;10.65;6.05;;;;;;;13.02;55.92;102250.34;5069003;28;20033;-21
2021/11/10 09:58:10;;;;;;;11.93;6.60;;;;;;;13.17;55.77;102236.97;5068335;28;20032;-21
2021/11/10 10:00:50;;;;;;;15.50;7.75;;;;;;;12.73;56.63;102240.38;5068970;28;20170;-21
2021/11/10 10:03:16;;;;;;;12.38;6.70;;;;;;;13.32;56.80;102245.91;5068402;28;20453;-21
2021/11/10 10:05:42;;;;;;;10.32;6.85;;;;;;;13.34;54.63;102237.66;5068581;28;20521;-22
2021/11/10 10:08:08;;;;;;;11.77;6.15;;;;;;;13.11;52.77;102225.16;5068538;28;20040;-21
2021/11/10 10:10:34;;;;;;;10.80;6.50;;;;;;;13.05;53.81;102218.66;5050581;28;20113;-21
2021/11/10 10:13:00;;;;;;;13.52;6.57;;;;;;;13.47;54.26;102229.84;5068638;28;20053;-21
2021/11/10 10:15:27;;;;;;;11.00;6.00;;;;;;;13.56;51.25;102201.06;5068924;28;20056;-21
2021/11/10 10:17:57;;;;;;;9.00;6.03;;;;;;;13.30;51.83;102223.81;5068673;28;20052;-21
2021/11/10 10:20:27;;;;;;;9.00;5.32;;;;;;;13.60;50.33;102221.94;5050988;28;20103;-21
2021/11/10 10:22:53;;;;;;;9.30;6.10;;;;;;;13.35;51.14;102212.56;5049639;28;20031;-21
2021/11/10 10:25:19;;;;;;;10.13;5.15;;;;;;;13.31;52.94;102205.91;5068396;28;20480;-21
2021/11/10 10:27:57;;;;;;;12.73;5.88;;;;;;;13.44;50.26;102206.91;5068237;28;20032;-21
2021/11/10 10:30:29;;;;;;;12.27;7.32;;;;;;;13.57;48.49;102211.63;5068153;28;20112;-21
2021/11/10 10:32:57;;;;;;;8.45;5.57;;;;;;;13.43;49.61;102201.75;5068660;28;20036;-21
2021/11/10 10:35:30;;;;;;;9.60;5.60;;;;;;;13.69;50.80;102185.16;5068218;28;20036;-22
2021/11/10 10:37:56;;;;;;;8.00;4.20;;;;;;;13.70;48.75;102186.00;5050252;28;20111;-22
2021/11/10 10:40:21;;;;;;;6.95;3.70;;;;;;;13.86;48.71;102178.56;5067970;28;20097;-21
2021/11/10 10:42:47;;;;;;;6.65;3.72;;;;;;;14.13;48.98;102191.44;5068365;28;20028;-21
2021/11/10 10:45:48;;;;;;;7.25;4.10;;;;;;;14.02;47.82;102182.84;5050209;28;20029;-21
2021/11/10 10:48:21;;;;;;;8.27;4.30;;;;;;;14.69;47.36;102180.84;5024980;28;20186;-21
2021/11/10 10:50:54;;;;;;;7.82;4.70;;;;;;;14.91;47.06;102154.75;5067399;28;20024;-21
2021/11/10 10:53:33;;;;;;;9.55;5.03;;;;;;;15.00;46.30;102163.50;5068131;28;20032;-21
2021/11/10 10:56:00;;;;;;;6.18;3.75;;;;;;;14.74;46.13;102153.41;5068128;28;20112;-21
2021/11/10 10:58:37;;;;;;;7.88;4.20;;;;;;;15.02;47.21;102150.69;5067689;28;20040;-21
2021/11/10 11:01:23;;;;;;;7.50;4.57;;;;;;;14.47;47.35;102163.91;5068120;28;20036;-21
2021/11/10 11:03:50;;;;;;;7.93;5.05;;;;;;;14.89;48.32;102148.72;5068090;28;20031;-21
2021/11/10 11:06:42;;;;;;;9.70;4.55;;;;;;;14.34;48.25;102143.09;5067546;28;20424;-21
2021/11/10 11:09:12;;;;;;;8.00;4.63;;;;;;;14.57;49.22;102153.69;5068306;28;20036;-21
2021/11/10 11:11:40;;;;;;;4.95;3.25;;;;;;;14.64;46.29;102137.63;5068059;28;20033;-21
2021/11/10 11:14:15;;;;;;;8.95;3.63;;;;;;;14.95;47.67;102139.88;5067976;28;20167;-21
2021/11/10 11:16:42;;;;;;;7.38;3.45;;;;;;;14.76;46.30;102132.53;5067836;28;20044;-20
2021/11/10 11:19:09;;;;;;;5.10;3.08;;;;;;;14.19;46.04;102126.25;5067932;28;20037;-21
2021/11/10 11:21:35;;;;;;;8.10;4.60;;;;;;;15.33;45.35;102127.91;5068132;28;20265;-21